sensor_id;sensor_type;location;lat;lon;timestamp;pressure;altitude;pressure_sealevel;temperature;humidity
68456;BME280;55437;55.046;38.838;2023-03-18T00:00:29;101551.47;;;-0.38;50.25
68456;BME280;55437;55.046;38.838;2023-03-18T00:02:55;101560.94;;;-0.32;50.28
68456;BME280;55437;55.046;38.838;2023-03-18T00:05:21;101560.94;;;-0.32;50.00
68456;BME280;55437;55.046;38.838;2023-03-18T00:07:47;101563.16;;;-0.40;50.68
68456;BME280;55437;55.046;38.838;2023-03-18T00:10:14;101562.25;;;-0.42;50.25
68456;BME280;55437;55.046;38.838;2023-03-18T00:12:41;101560.44;;;-0.45;50.64
68456;BME280;55437;55.046;38.838;2023-03-18T00:15:11;101565.56;;;-0.43;50.80
68456;BME280;55437;55.046;38.838;2023-03-18T00:17:37;101560.44;;;-0.45;50.44
68456;BME280;55437;55.046;38.838;2023-03-18T00:20:06;101565.75;;;-0.39;50.98
68456;BME280;55437;55.046;38.838;2023-03-18T00:22:34;101565.91;;;-0.34;50.88
68456;BME280;55437;55.046;38.838;2023-03-18T00:25:02;101571.09;;;-0.31;50.81
68456;BME280;55437;55.046;38.838;2023-03-18T00:27:30;101568.50;;;-0.32;50.76
68456;BME280;55437;55.046;38.838;2023-03-18T00:29:56;101577.94;;;-0.28;50.93
68456;BME280;55437;55.046;38.838;2023-03-18T00:32:25;101576.13;;;-0.31;50.56
68456;BME280;55437;55.046;38.838;2023-03-18T00:34:54;101580.13;;;-0.36;50.83
68456;BME280;55437;55.046;38.838;2023-03-18T00:37:22;101585.94;;;-0.39;51.12
68456;BME280;55437;55.046;38.838;2023-03-18T00:40:10;101594.25;;;-0.41;50.95
68456;BME280;55437;55.046;38.838;2023-03-18T00:42:43;101592.59;;;-0.41;50.98
68456;BME280;55437;55.046;38.838;2023-03-18T00:45:39;101590.00;;;-0.42;51.10
68456;BME280;55437;55.046;38.838;2023-03-18T00:48:06;101589.06;;;-0.44;51.60
68456;BME280;55437;55.046;38.838;2023-03-18T00:50:35;101598.50;;;-0.40;51.48
68456;BME280;55437;55.046;38.838;2023-03-18T00:53:02;101606.84;;;-0.41;51.55
68456;BME280;55437;55.046;38.838;2023-03-18T00:55:28;101606.78;;;-0.43;51.63
68456;BME280;55437;55.046;38.838;2023-03-18T00:57:54;101599.09;;;-0.46;51.92
68456;BME280;55437;55.046;38.838;2023-03-18T01:00:20;101603.97;;;-0.50;51.84
68456;BME280;55437;55.046;38.838;2023-03-18T01:02:46;101611.34;;;-0.55;51.73
68456;BME280;55437;55.046;38.838;2023-03-18T01:05:14;101612.28;;;-0.53;51.48
68456;BME280;55437;55.046;38.838;2023-03-18T01:07:42;101619.09;;;-0.50;51.74
68456;BME280;55437;55.046;38.838;2023-03-18T01:10:11;101619.97;;;-0.50;51.97
68456;BME280;55437;55.046;38.838;2023-03-18T01:12:38;101622.53;;;-0.48;51.81
68456;BME280;55437;55.046;38.838;2023-03-18T01:15:09;101625.69;;;-0.54;51.92
68456;BME280;55437;55.046;38.838;2023-03-18T01:17:37;101635.50;;;-0.60;52.01
68456;BME280;55437;55.046;38.838;2023-03-18T01:20:03;101623.56;;;-0.64;52.34
68456;BME280;55437;55.046;38.838;2023-03-18T01:22:29;101628.78;;;-0.59;52.68
68456;BME280;55437;55.046;38.838;2023-03-18T01:24:55;101628.50;;;-0.67;52.43
68456;BME280;55437;55.046;38.838;2023-03-18T01:27:28;101628.63;;;-0.64;52.39
68456;BME280;55437;55.046;38.838;2023-03-18T01:29:56;101629.34;;;-0.66;52.92
68456;BME280;55437;55.046;38.838;2023-03-18T01:32:23;101633.16;;;-0.76;53.33
68456;BME280;55437;55.046;38.838;2023-03-18T01:34:49;101634.47;;;-0.84;53.30
68456;BME280;55437;55.046;38.838;2023-03-18T01:37:15;101636.97;;;-0.84;53.57
68456;BME280;55437;55.046;38.838;2023-03-18T01:39:44;101639.66;;;-0.81;53.39
68456;BME280;55437;55.046;38.838;2023-03-18T01:42:17;101639.84;;;-0.77;53.30
68456;BME280;55437;55.046;38.838;2023-03-18T01:47:43;101649.47;;;-0.87;53.86
68456;BME280;55437;55.046;38.838;2023-03-18T01:50:20;101647.53;;;-0.93;54.08
68456;BME280;55437;55.046;38.838;2023-03-18T01:52:50;101651.72;;;-0.93;54.21
68456;BME280;55437;55.046;38.838;2023-03-18T01:55:19;101651.41;;;-1.01;54.25
68456;BME280;55437;55.046;38.838;2023-03-18T01:57:47;101653.78;;;-1.04;54.19
68456;BME280;55437;55.046;38.838;2023-03-18T02:00:15;101653.13;;;-1.00;53.93
68456;BME280;55437;55.046;38.838;2023-03-18T02:02:45;101657.56;;;-0.94;53.78
68456;BME280;55437;55.046;38.838;2023-03-18T02:05:16;101655.72;;;-0.98;53.69
68456;BME280;55437;55.046;38.838;2023-03-18T02:07:44;101662.22;;;-1.03;54.04
68456;BME280;55437;55.046;38.838;2023-03-18T02:10:16;101667.91;;;-1.08;54.53
68456;BME280;55437;55.046;38.838;2023-03-18T02:12:48;101672.91;;;-1.09;54.54
68456;BME280;55437;55.046;38.838;2023-03-18T02:15:24;101674.47;;;-1.11;54.12
68456;BME280;55437;55.046;38.838;2023-03-18T02:17:56;101688.03;;;-1.09;53.90
68456;BME280;55437;55.046;38.838;2023-03-18T02:28:33;101692.63;;;-1.18;54.13
68456;BME280;55437;55.046;38.838;2023-03-18T02:31:05;101686.53;;;-1.23;54.02
68456;BME280;55437;55.046;38.838;2023-03-18T02:33:36;101692.06;;;-1.30;54.08
68456;BME280;55437;55.046;38.838;2023-03-18T02:36:09;101695.34;;;-1.33;54.18
68456;BME280;55437;55.046;38.838;2023-03-18T02:38:41;101685.19;;;-1.34;54.31
68456;BME280;55437;55.046;38.838;2023-03-18T02:41:15;101689.47;;;-1.32;54.60
68456;BME280;55437;55.046;38.838;2023-03-18T02:43:42;101700.41;;;-1.31;54.77
68456;BME280;55437;55.046;38.838;2023-03-18T02:49:04;101701.22;;;-1.32;54.90
68456;BME280;55437;55.046;38.838;2023-03-18T02:51:35;101702.81;;;-1.34;54.49
68456;BME280;55437;55.046;38.838;2023-03-18T02:54:10;101707.63;;;-1.39;54.98
68456;BME280;55437;55.046;38.838;2023-03-18T02:56:38;101706.63;;;-1.42;55.01
68456;BME280;55437;55.046;38.838;2023-03-18T02:59:04;101710.00;;;-1.42;54.99
68456;BME280;55437;55.046;38.838;2023-03-18T03:01:33;101706.63;;;-1.42;54.97
68456;BME280;55437;55.046;38.838;2023-03-18T03:04:05;101704.72;;;-1.48;55.24
68456;BME280;55437;55.046;38.838;2023-03-18T03:06:33;101712.75;;;-1.55;55.13
68456;BME280;55437;55.046;38.838;2023-03-18T03:09:00;101723.34;;;-1.62;55.70
68456;BME280;55437;55.046;38.838;2023-03-18T03:12:27;101725.50;;;-1.70;55.38
68456;BME280;55437;55.046;38.838;2023-03-18T03:15:24;101724.41;;;-1.75;56.01
68456;BME280;55437;55.046;38.838;2023-03-18T03:17:59;101727.88;;;-1.73;56.17
68456;BME280;55437;55.046;38.838;2023-03-18T03:20:55;101723.63;;;-1.74;56.16
68456;BME280;55437;55.046;38.838;2023-03-18T03:23:25;101731.81;;;-1.78;56.22
68456;BME280;55437;55.046;38.838;2023-03-18T03:25:51;101735.13;;;-1.79;56.12
68456;BME280;55437;55.046;38.838;2023-03-18T03:28:44;101738.38;;;-1.82;55.84
68456;BME280;55437;55.046;38.838;2023-03-18T03:31:14;101739.16;;;-1.83;56.58
68456;BME280;55437;55.046;38.838;2023-03-18T03:34:08;101745.94;;;-1.82;56.04
68456;BME280;55437;55.046;38.838;2023-03-18T03:36:35;101736.41;;;-1.87;56.42
68456;BME280;55437;55.046;38.838;2023-03-18T03:39:01;101741.53;;;-1.86;56.51
68456;BME280;55437;55.046;38.838;2023-03-18T03:41:53;101746.91;;;-1.78;56.42
68456;BME280;55437;55.046;38.838;2023-03-18T03:44:19;101742.97;;;-1.73;56.41
68456;BME280;55437;55.046;38.838;2023-03-18T03:46:47;101746.63;;;-1.66;56.19
68456;BME280;55437;55.046;38.838;2023-03-18T03:49:39;101749.22;;;-1.65;56.15
68456;BME280;55437;55.046;38.838;2023-03-18T03:52:05;101756.25;;;-1.59;55.75
68456;BME280;55437;55.046;38.838;2023-03-18T03:54:35;101759.75;;;-1.56;55.66
68456;BME280;55437;55.046;38.838;2023-03-18T03:57:02;101756.75;;;-1.49;55.92
68456;BME280;55437;55.046;38.838;2023-03-18T03:59:28;101751.91;;;-1.26;55.67
68456;BME280;55437;55.046;38.838;2023-03-18T04:02:19;101763.09;;;-0.65;54.51
68456;BME280;55437;55.046;38.838;2023-03-18T04:04:53;101766.50;;;-0.26;53.67
68456;BME280;55437;55.046;38.838;2023-03-18T04:07:24;101764.44;;;0.06;53.10
68456;BME280;55437;55.046;38.838;2023-03-18T04:09:54;101760.69;;;0.38;52.70
68456;BME280;55437;55.046;38.838;2023-03-18T04:12:20;101759.63;;;0.53;52.76
68456;BME280;55437;55.046;38.838;2023-03-18T04:14:54;101756.44;;;0.57;52.42
68456;BME280;55437;55.046;38.838;2023-03-18T04:17:22;101765.84;;;0.82;51.91
68456;BME280;55437;55.046;38.838;2023-03-18T04:23:46;101770.56;;;0.95;51.08
68456;BME280;55437;55.046;38.838;2023-03-18T04:26:15;101769.44;;;1.11;51.06
68456;BME280;55437;55.046;38.838;2023-03-18T04:29:34;101776.94;;;1.78;50.12
68456;BME280;55437;55.046;38.838;2023-03-18T04:32:37;101774.97;;;2.20;48.99
68456;BME280;55437;55.046;38.838;2023-03-18T04:35:52;101782.63;;;2.74;47.95
68456;BME280;55437;55.046;38.838;2023-03-18T04:38:22;101789.22;;;2.96;47.79
68456;BME280;55437;55.046;38.838;2023-03-18T04:41:15;101783.97;;;2.89;47.00
68456;BME280;55437;55.046;38.838;2023-03-18T04:43:41;101788.34;;;2.95;46.88
68456;BME280;55437;55.046;38.838;2023-03-18T04:46:10;101785.38;;;3.37;46.20
68456;BME280;55437;55.046;38.838;2023-03-18T04:48:45;101783.63;;;3.97;45.32
68456;BME280;55437;55.046;38.838;2023-03-18T04:51:11;101792.50;;;4.47;44.60
68456;BME280;55437;55.046;38.838;2023-03-18T04:53:38;101791.56;;;4.78;44.24
68456;BME280;55437;55.046;38.838;2023-03-18T04:56:32;101798.44;;;5.21;43.19
68456;BME280;55437;55.046;38.838;2023-03-18T04:59:01;101796.34;;;5.42;42.72
68456;BME280;55437;55.046;38.838;2023-03-18T05:01:32;101793.84;;;5.46;42.48
68456;BME280;55437;55.046;38.838;2023-03-18T05:04:01;101800.41;;;5.34;42.21
68456;BME280;55437;55.046;38.838;2023-03-18T05:06:36;101810.97;;;5.12;42.20
68456;BME280;55437;55.046;38.838;2023-03-18T05:09:08;101808.91;;;4.58;42.34
68456;BME280;55437;55.046;38.838;2023-03-18T05:14:56;101808.31;;;4.35;42.58
68456;BME280;55437;55.046;38.838;2023-03-18T05:17:25;101815.31;;;4.10;42.33
68456;BME280;55437;55.046;38.838;2023-03-18T05:20:22;101811.72;;;4.34;42.13
68456;BME280;55437;55.046;38.838;2023-03-18T05:22:53;101812.22;;;4.56;41.67
68456;BME280;55437;55.046;38.838;2023-03-18T05:25:39;101819.28;;;5.03;41.29
68456;BME280;55437;55.046;38.838;2023-03-18T05:28:32;101819.34;;;5.06;40.66
68456;BME280;55437;55.046;38.838;2023-03-18T05:31:22;101827.19;;;5.98;39.46
68456;BME280;55437;55.046;38.838;2023-03-18T05:34:19;101820.63;;;6.61;38.32
68456;BME280;55437;55.046;38.838;2023-03-18T05:36:47;101822.97;;;7.03;37.39
68456;BME280;55437;55.046;38.838;2023-03-18T05:39:43;101824.78;;;7.10;37.26
68456;BME280;55437;55.046;38.838;2023-03-18T05:42:40;101834.78;;;6.95;36.73
68456;BME280;55437;55.046;38.838;2023-03-18T05:45:08;101825.28;;;6.86;36.13
68456;BME280;55437;55.046;38.838;2023-03-18T05:47:47;101831.91;;;7.32;35.52
68456;BME280;55437;55.046;38.838;2023-03-18T05:50:39;101832.34;;;7.67;34.92
68456;BME280;55437;55.046;38.838;2023-03-18T05:53:10;101835.91;;;7.80;34.22
68456;BME280;55437;55.046;38.838;2023-03-18T05:56:05;101829.94;;;7.81;34.01
68456;BME280;55437;55.046;38.838;2023-03-18T05:58:34;101834.44;;;8.03;33.85
68456;BME280;55437;55.046;38.838;2023-03-18T06:01:16;101834.50;;;8.11;33.20
68456;BME280;55437;55.046;38.838;2023-03-18T06:03:44;101827.28;;;8.55;33.42
68456;BME280;55437;55.046;38.838;2023-03-18T06:06:36;101829.19;;;8.82;32.60
68456;BME280;55437;55.046;38.838;2023-03-18T06:09:31;101833.53;;;8.90;31.68
68456;BME280;55437;55.046;38.838;2023-03-18T06:12:02;101843.91;;;9.13;31.58
68456;BME280;55437;55.046;38.838;2023-03-18T06:14:30;101842.41;;;9.52;31.08
68456;BME280;55437;55.046;38.838;2023-03-18T06:17:00;101845.78;;;9.38;30.85
68456;BME280;55437;55.046;38.838;2023-03-18T06:19:27;101838.88;;;9.27;30.87
68456;BME280;55437;55.046;38.838;2023-03-18T06:22:18;101843.34;;;9.72;30.51
68456;BME280;55437;55.046;38.838;2023-03-18T06:24:45;101842.47;;;9.68;30.23
68456;BME280;55437;55.046;38.838;2023-03-18T06:27:11;101849.34;;;9.79;30.08
68456;BME280;55437;55.046;38.838;2023-03-18T06:29:41;101843.47;;;10.11;29.80
68456;BME280;55437;55.046;38.838;2023-03-18T06:32:11;101839.16;;;10.07;29.62
68456;BME280;55437;55.046;38.838;2023-03-18T06:34:41;101845.25;;;10.26;29.50
68456;BME280;55437;55.046;38.838;2023-03-18T06:37:10;101847.78;;;10.29;29.51
68456;BME280;55437;55.046;38.838;2023-03-18T06:39:38;101856.38;;;10.97;28.80
68456;BME280;55437;55.046;38.838;2023-03-18T06:42:07;101845.19;;;11.21;28.66
68456;BME280;55437;55.046;38.838;2023-03-18T06:44:51;101858.94;;;10.37;28.38
68456;BME280;55437;55.046;38.838;2023-03-18T06:47:32;101853.63;;;9.80;29.19
68456;BME280;55437;55.046;38.838;2023-03-18T06:49:59;101851.16;;;10.08;29.05
68456;BME280;55437;55.046;38.838;2023-03-18T06:52:35;101848.66;;;10.53;28.99
68456;BME280;55437;55.046;38.838;2023-03-18T06:55:26;101852.94;;;10.87;28.44
68456;BME280;55437;55.046;38.838;2023-03-18T06:57:57;101854.63;;;11.06;28.41
68456;BME280;55437;55.046;38.838;2023-03-18T07:00:31;101858.94;;;10.53;28.57
68456;BME280;55437;55.046;38.838;2023-03-18T07:03:26;101852.00;;;10.09;28.74
68456;BME280;55437;55.046;38.838;2023-03-18T07:05:52;101847.72;;;10.02;28.89
68456;BME280;55437;55.046;38.838;2023-03-18T07:08:19;101851.09;;;9.90;28.90
68456;BME280;55437;55.046;38.838;2023-03-18T07:10:45;101858.84;;;10.07;28.63
68456;BME280;55437;55.046;38.838;2023-03-18T07:13:14;101854.56;;;10.15;28.34
68456;BME280;55437;55.046;38.838;2023-03-18T07:15:42;101851.13;;;9.99;28.71
68456;BME280;55437;55.046;38.838;2023-03-18T07:18:09;101853.59;;;9.63;29.00
68456;BME280;55437;55.046;38.838;2023-03-18T07:20:39;101851.06;;;9.75;28.77
68456;BME280;55437;55.046;38.838;2023-03-18T07:23:05;101850.28;;;9.99;28.44
68456;BME280;55437;55.046;38.838;2023-03-18T07:25:34;101856.19;;;9.80;28.65
68456;BME280;55437;55.046;38.838;2023-03-18T07:28:46;101857.03;;;9.71;28.53
68456;BME280;55437;55.046;38.838;2023-03-18T07:31:12;101856.28;;;10.18;28.35
68456;BME280;55437;55.046;38.838;2023-03-18T07:33:39;101857.97;;;10.03;28.99
68456;BME280;55437;55.046;38.838;2023-03-18T07:36:05;101864.91;;;10.39;28.65
68456;BME280;55437;55.046;38.838;2023-03-18T07:38:31;101855.50;;;10.40;28.43
68456;BME280;55437;55.046;38.838;2023-03-18T07:40:57;101852.94;;;10.35;28.62
68456;BME280;55437;55.046;38.838;2023-03-18T07:43:25;101852.94;;;10.54;28.14
68456;BME280;55437;55.046;38.838;2023-03-18T07:45:51;101856.38;;;10.33;28.50
68456;BME280;55437;55.046;38.838;2023-03-18T07:48:43;101870.91;;;10.31;28.46
68456;BME280;55437;55.046;38.838;2023-03-18T07:51:11;101855.53;;;10.73;27.73
68456;BME280;55437;55.046;38.838;2023-03-18T07:54:03;101865.81;;;10.67;27.56
68456;BME280;55437;55.046;38.838;2023-03-18T07:56:29;101860.63;;;10.29;28.34
68456;BME280;55437;55.046;38.838;2023-03-18T07:58:58;101860.53;;;9.94;28.58
68456;BME280;55437;55.046;38.838;2023-03-18T08:01:24;101856.94;;;9.56;28.90
68456;BME280;55437;55.046;38.838;2023-03-18T08:03:50;101858.59;;;9.38;29.23
68456;BME280;55437;55.046;38.838;2023-03-18T08:06:16;101860.38;;;9.55;29.01
68456;BME280;55437;55.046;38.838;2023-03-18T08:08:43;101855.38;;;9.91;28.61
68456;BME280;55437;55.046;38.838;2023-03-18T08:11:09;101858.84;;;10.16;28.41
68456;BME280;55437;55.046;38.838;2023-03-18T08:13:37;101858.09;;;10.26;28.50
68456;BME280;55437;55.046;38.838;2023-03-18T08:16:53;101859.72;;;10.12;28.50
68456;BME280;55437;55.046;38.838;2023-03-18T08:19:24;101871.38;;;9.35;28.88
68456;BME280;55437;55.046;38.838;2023-03-18T08:21:50;101859.38;;;9.27;29.03
68456;BME280;55437;55.046;38.838;2023-03-18T08:24:18;101856.75;;;9.13;29.19
68456;BME280;55437;55.046;38.838;2023-03-18T08:26:46;101859.22;;;9.02;29.28
68456;BME280;55437;55.046;38.838;2023-03-18T08:29:14;101860.78;;;8.81;29.77
68456;BME280;55437;55.046;38.838;2023-03-18T08:31:40;101860.59;;;8.59;29.74
68456;BME280;55437;55.046;38.838;2023-03-18T08:34:09;101861.44;;;8.55;29.75
68456;BME280;55437;55.046;38.838;2023-03-18T08:37:04;101867.34;;;7.71;30.63
68456;BME280;55437;55.046;38.838;2023-03-18T08:39:56;101863.19;;;7.16;30.49
68456;BME280;55437;55.046;38.838;2023-03-18T08:42:23;101864.44;;;6.85;31.73
68456;BME280;55437;55.046;38.838;2023-03-18T08:44:56;101865.88;;;6.69;31.36
68456;BME280;55437;55.046;38.838;2023-03-18T08:47:23;101863.63;;;6.89;31.00
68456;BME280;55437;55.046;38.838;2023-03-18T08:49:51;101861.50;;;6.62;31.17
68456;BME280;55437;55.046;38.838;2023-03-18T08:52:17;101861.09;;;6.38;31.64
68456;BME280;55437;55.046;38.838;2023-03-18T08:54:45;101866.00;;;6.29;31.89
68456;BME280;55437;55.046;38.838;2023-03-18T08:57:12;101853.66;;;6.52;31.88
68456;BME280;55437;55.046;38.838;2023-03-18T08:59:38;101855.38;;;6.54;32.05
68456;BME280;55437;55.046;38.838;2023-03-18T09:02:13;101844.38;;;6.57;31.38
68456;BME280;55437;55.046;38.838;2023-03-18T09:04:42;101843.34;;;6.45;31.35
68456;BME280;55437;55.046;38.838;2023-03-18T09:07:33;101848.63;;;6.08;31.55
68456;BME280;55437;55.046;38.838;2023-03-18T09:10:02;101849.41;;;5.62;31.89
68456;BME280;55437;55.046;38.838;2023-03-18T09:12:29;101844.16;;;5.54;31.72
68456;BME280;55437;55.046;38.838;2023-03-18T09:15:21;101839.19;;;5.21;32.59
68456;BME280;55437;55.046;38.838;2023-03-18T09:17:51;101838.31;;;5.21;32.29
68456;BME280;55437;55.046;38.838;2023-03-18T09:20:18;101836.78;;;5.27;31.67
68456;BME280;55437;55.046;38.838;2023-03-18T09:22:45;101839.22;;;5.23;32.03
68456;BME280;55437;55.046;38.838;2023-03-18T09:25:18;101834.25;;;4.90;32.00
68456;BME280;55437;55.046;38.838;2023-03-18T09:27:45;101832.16;;;5.11;32.39
68456;BME280;55437;55.046;38.838;2023-03-18T09:30:16;101839.78;;;5.10;32.39
68456;BME280;55437;55.046;38.838;2023-03-18T09:32:45;101834.63;;;5.06;32.02
68456;BME280;55437;55.046;38.838;2023-03-18T09:35:11;101843.88;;;5.03;31.95
68456;BME280;55437;55.046;38.838;2023-03-18T09:37:38;101823.91;;;4.82;32.11
68456;BME280;55437;55.046;38.838;2023-03-18T09:40:06;101819.00;;;4.91;32.27
68456;BME280;55437;55.046;38.838;2023-03-18T09:42:54;101821.59;;;4.93;32.31
68456;BME280;55437;55.046;38.838;2023-03-18T09:45:43;101819.16;;;4.99;32.06
68456;BME280;55437;55.046;38.838;2023-03-18T09:57:05;101817.56;;;5.02;31.98
68456;BME280;55437;55.046;38.838;2023-03-18T10:00:05;101808.38;;;5.11;31.89
68456;BME280;55437;55.046;38.838;2023-03-18T10:05:34;101806.91;;;5.19;32.01
68456;BME280;55437;55.046;38.838;2023-03-18T10:08:05;101800.06;;;5.18;31.62
68456;BME280;55437;55.046;38.838;2023-03-18T10:10:40;101800.97;;;5.21;31.11
68456;BME280;55437;55.046;38.838;2023-03-18T10:13:37;101797.00;;;4.93;31.23
68456;BME280;55437;55.046;38.838;2023-03-18T10:16:15;101793.91;;;5.08;31.30
68456;BME280;55437;55.046;38.838;2023-03-18T10:18:49;101798.22;;;5.11;31.14
68456;BME280;55437;55.046;38.838;2023-03-18T10:27:37;101790.38;;;5.01;31.09
68456;BME280;55437;55.046;38.838;2023-03-18T10:33:10;101783.53;;;4.99;31.14
68456;BME280;55437;55.046;38.838;2023-03-18T10:35:55;101767.38;;;4.98;30.61
68456;BME280;55437;55.046;38.838;2023-03-18T10:38:35;101773.50;;;5.05;30.55
68456;BME280;55437;55.046;38.838;2023-03-18T10:41:24;101775.31;;;5.12;30.74
68456;BME280;55437;55.046;38.838;2023-03-18T10:43:56;101771.22;;;5.17;30.14
68456;BME280;55437;55.046;38.838;2023-03-18T10:46:24;101758.66;;;5.26;30.19
68456;BME280;55437;55.046;38.838;2023-03-18T10:48:55;101764.69;;;5.31;30.30
68456;BME280;55437;55.046;38.838;2023-03-18T10:51:49;101760.47;;;5.33;30.11
68456;BME280;55437;55.046;38.838;2023-03-18T10:54:40;101764.44;;;5.18;30.33
68456;BME280;55437;55.046;38.838;2023-03-18T10:57:13;101743.31;;;5.23;30.34
68456;BME280;55437;55.046;38.838;2023-03-18T10:59:40;101768.69;;;5.19;29.98
68456;BME280;55437;55.046;38.838;2023-03-18T11:02:19;101777.31;;;5.25;29.65
68456;BME280;55437;55.046;38.838;2023-03-18T11:04:53;101768.69;;;5.19;29.45
68456;BME280;55437;55.046;38.838;2023-03-18T11:07:26;101755.94;;;5.17;29.81
68456;BME280;55437;55.046;38.838;2023-03-18T11:09:53;101751.06;;;5.28;29.67
68456;BME280;55437;55.046;38.838;2023-03-18T11:12:26;101751.97;;;5.33;29.37
68456;BME280;55437;55.046;38.838;2023-03-18T11:14:55;101743.28;;;5.22;29.78
68456;BME280;55437;55.046;38.838;2023-03-18T11:17:31;101756.16;;;5.28;30.00
68456;BME280;55437;55.046;38.838;2023-03-18T11:20:36;101746.59;;;5.18;29.81
68456;BME280;55437;55.046;38.838;2023-03-18T11:26:24;101751.22;;;4.95;29.82
68456;BME280;55437;55.046;38.838;2023-03-18T11:29:01;101745.56;;;5.10;29.67
68456;BME280;55437;55.046;38.838;2023-03-18T11:31:31;101740.53;;;5.13;29.54
68456;BME280;55437;55.046;38.838;2023-03-18T11:34:07;101734.84;;;5.24;29.86
68456;BME280;55437;55.046;38.838;2023-03-18T11:36:33;101739.06;;;5.24;29.67
68456;BME280;55437;55.046;38.838;2023-03-18T11:39:34;101730.66;;;5.26;29.69
68456;BME280;55437;55.046;38.838;2023-03-18T11:42:15;101730.44;;;5.16;29.46
68456;BME280;55437;55.046;38.838;2023-03-18T11:44:53;101727.53;;;4.99;29.13
68456;BME280;55437;55.046;38.838;2023-03-18T11:47:25;101720.59;;;4.92;29.07
68456;BME280;55437;55.046;38.838;2023-03-18T11:50:01;101720.75;;;4.99;29.21
68456;BME280;55437;55.046;38.838;2023-03-18T12:01:32;101704.69;;;5.02;28.93
68456;BME280;55437;55.046;38.838;2023-03-18T12:10:33;101694.84;;;5.19;28.64
68456;BME280;55437;55.046;38.838;2023-03-18T12:13:48;101710.03;;;5.14;28.34
68456;BME280;55437;55.046;38.838;2023-03-18T12:16:34;101704.66;;;5.00;28.15
68456;BME280;55437;55.046;38.838;2023-03-18T12:21:58;101687.63;;;4.98;28.85
68456;BME280;55437;55.046;38.838;2023-03-18T12:25:06;101685.16;;;5.01;28.73
68456;BME280;55437;55.046;38.838;2023-03-18T12:27:54;101684.81;;;4.86;28.62
68456;BME280;55437;55.046;38.838;2023-03-18T12:42:10;101687.63;;;4.98;28.97
68456;BME280;55437;55.046;38.838;2023-03-18T12:45:00;101670.56;;;4.92;28.99
68456;BME280;55437;55.046;38.838;2023-03-18T12:47:30;101678.34;;;5.00;28.76
68456;BME280;55437;55.046;38.838;2023-03-18T12:52:59;101669.13;;;5.05;29.00
68456;BME280;55437;55.046;38.838;2023-03-18T12:55:56;101664.91;;;5.08;29.00
68456;BME280;55437;55.046;38.838;2023-03-18T12:58:30;101662.47;;;5.13;29.14
68456;BME280;55437;55.046;38.838;2023-03-18T13:03:48;101658.91;;;5.03;29.22
68456;BME280;55437;55.046;38.838;2023-03-18T13:06:26;101657.53;;;4.79;29.31
68456;BME280;55437;55.046;38.838;2023-03-18T13:09:02;101663.50;;;4.79;29.43
68456;BME280;55437;55.046;38.838;2023-03-18T13:17:12;101654.00;;;4.70;29.70
68456;BME280;55437;55.046;38.838;2023-03-18T13:19:40;101655.78;;;4.76;29.35
68456;BME280;55437;55.046;38.838;2023-03-18T13:34:48;101643.13;;;4.79;29.17
68456;BME280;55437;55.046;38.838;2023-03-18T13:40:21;101641.31;;;4.74;28.89
68456;BME280;55437;55.046;38.838;2023-03-18T13:42:58;101646.59;;;4.83;29.06
68456;BME280;55437;55.046;38.838;2023-03-18T13:45:37;101639.69;;;4.77;29.19
68456;BME280;55437;55.046;38.838;2023-03-18T13:48:09;101643.84;;;4.74;29.11
68456;BME280;55437;55.046;38.838;2023-03-18T13:54:02;101643.63;;;4.63;29.29
68456;BME280;55437;55.046;38.838;2023-03-18T14:02:40;101629.38;;;4.69;29.39
68456;BME280;55437;55.046;38.838;2023-03-18T14:07:54;101625.09;;;4.68;29.24
68456;BME280;55437;55.046;38.838;2023-03-18T14:10:20;101626.78;;;4.68;29.38
68456;BME280;55437;55.046;38.838;2023-03-18T14:12:47;101620.81;;;4.66;29.80
68456;BME280;55437;55.046;38.838;2023-03-18T14:15:36;101619.94;;;4.65;29.92
68456;BME280;55437;55.046;38.838;2023-03-18T14:18:59;101617.25;;;4.58;29.73
68456;BME280;55437;55.046;38.838;2023-03-18T14:21:28;101616.41;;;4.59;30.17
68456;BME280;55437;55.046;38.838;2023-03-18T14:27:15;101612.88;;;4.52;30.19
68456;BME280;55437;55.046;38.838;2023-03-18T14:33:01;101604.16;;;4.41;30.11
68456;BME280;55437;55.046;38.838;2023-03-18T14:36:03;101606.81;;;4.46;30.24
68456;BME280;55437;55.046;38.838;2023-03-18T14:38:39;101603.34;;;4.42;30.56
68456;BME280;55437;55.046;38.838;2023-03-18T14:41:16;101604.91;;;4.37;30.80
68456;BME280;55437;55.046;38.838;2023-03-18T14:44:13;101599.66;;;4.28;30.98
68456;BME280;55437;55.046;38.838;2023-03-18T14:47:18;101604.72;;;4.28;31.14
68456;BME280;55437;55.046;38.838;2023-03-18T14:49:52;101605.50;;;4.25;31.03
68456;BME280;55437;55.046;38.838;2023-03-18T14:52:52;101603.59;;;4.15;31.14
68456;BME280;55437;55.046;38.838;2023-03-18T14:55:28;101607.84;;;4.16;31.23
68456;BME280;55437;55.046;38.838;2023-03-18T14:58:43;101609.50;;;4.14;31.15
68456;BME280;55437;55.046;38.838;2023-03-18T15:01:12;101611.22;;;4.15;31.17
68456;BME280;55437;55.046;38.838;2023-03-18T15:03:48;101610.28;;;4.12;31.29
68456;BME280;55437;55.046;38.838;2023-03-18T15:06:44;101612.75;;;4.07;31.58
68456;BME280;55437;55.046;38.838;2023-03-18T15:09:16;101619.47;;;4.05;31.77
68456;BME280;55437;55.046;38.838;2023-03-18T15:11:45;101609.19;;;4.01;32.12
68456;BME280;55437;55.046;38.838;2023-03-18T15:17:14;101610.63;;;3.89;32.16
68456;BME280;55437;55.046;38.838;2023-03-18T15:19:43;101603.59;;;3.79;32.36
68456;BME280;55437;55.046;38.838;2023-03-18T15:22:21;101595.84;;;3.73;32.46
68456;BME280;55437;55.046;38.838;2023-03-18T15:25:19;101600.81;;;3.69;32.73
68456;BME280;55437;55.046;38.838;2023-03-18T15:27:48;101599.88;;;3.65;32.55
68456;BME280;55437;55.046;38.838;2023-03-18T15:30:23;101602.13;;;3.53;32.96